createdAt,value
2022-12-17T00:01:06.985Z,11.50
2022-12-17T00:03:53.036Z,11.93
2022-12-17T00:06:45.408Z,12.70
2022-12-17T00:09:32.795Z,12.23
2022-12-17T00:12:18.098Z,11.80
2022-12-17T00:15:03.388Z,12.93
2022-12-17T00:17:52.047Z,11.48
2022-12-17T00:20:37.748Z,11.93
2022-12-17T00:23:27.304Z,12.52
2022-12-17T00:26:15.026Z,10.55
2022-12-17T00:29:00.442Z,12.65
2022-12-17T00:31:48.461Z,11.75
2022-12-17T00:34:34.212Z,11.90
2022-12-17T00:37:19.668Z,11.73
2022-12-17T00:40:05.697Z,11.30
2022-12-17T00:42:50.661Z,12.68
2022-12-17T00:45:36.114Z,12.00
2022-12-17T00:48:21.570Z,12.65
2022-12-17T00:51:07.436Z,12.25
2022-12-17T00:53:52.782Z,12.27
2022-12-17T00:56:37.981Z,12.45
2022-12-17T00:59:24.175Z,12.10
2022-12-17T01:02:09.344Z,11.93
2022-12-17T01:04:55.300Z,12.82
2022-12-17T01:07:42.497Z,12.88
2022-12-17T01:10:28.434Z,12.85
2022-12-17T01:13:13.687Z,11.73
2022-12-17T01:15:58.956Z,11.63
2022-12-17T01:18:44.334Z,11.20
2022-12-17T01:21:29.932Z,12.07
2022-12-17T01:24:14.778Z,12.13
2022-12-17T01:27:00.177Z,13.93
2022-12-17T01:29:45.108Z,13.88
2022-12-17T01:32:30.552Z,12.63
2022-12-17T01:35:15.670Z,11.20
2022-12-17T01:38:00.749Z,11.45
2022-12-17T01:40:46.158Z,11.50
2022-12-17T01:43:31.417Z,11.88
2022-12-17T01:46:17.431Z,11.45
2022-12-17T01:49:06.156Z,12.18
2022-12-17T01:51:52.825Z,9.17
2022-12-17T01:54:38.517Z,11.88
2022-12-17T01:57:25.968Z,12.30
2022-12-17T02:00:22.913Z,13.52
2022-12-17T02:03:08.041Z,14.25
2022-12-17T02:06:07.865Z,13.73
2022-12-17T02:09:04.357Z,13.10
2022-12-17T02:12:10.714Z,12.85
2022-12-17T02:15:04.396Z,11.93
2022-12-17T02:17:58.838Z,12.90
2022-12-17T02:20:53.305Z,12.57
2022-12-17T02:24:13.288Z,11.90
2022-12-17T02:27:02.888Z,11.57
2022-12-17T02:29:52.440Z,12.85
2022-12-17T02:32:38.969Z,12.30
2022-12-17T02:35:31.906Z,12.07
2022-12-17T02:38:17.222Z,12.52
2022-12-17T02:41:06.260Z,11.95
2022-12-17T02:43:53.830Z,12.80
2022-12-17T02:46:40.156Z,11.57
2022-12-17T02:49:25.283Z,12.30
2022-12-17T02:52:13.260Z,12.55
2022-12-17T02:54:58.590Z,12.00
2022-12-17T02:57:45.768Z,13.52
2022-12-17T03:00:33.288Z,11.95
2022-12-17T03:03:18.707Z,12.13
2022-12-17T03:06:03.898Z,12.18
2022-12-17T03:08:49.193Z,13.38
2022-12-17T03:11:35.878Z,12.35
2022-12-17T03:14:21.126Z,12.18
2022-12-17T03:17:06.426Z,11.98
2022-12-17T03:19:51.533Z,12.25
2022-12-17T03:22:36.947Z,12.05
2022-12-17T03:25:22.117Z,12.13
2022-12-17T03:28:07.231Z,11.98
2022-12-17T03:30:52.428Z,12.20
2022-12-17T03:33:37.972Z,13.02
2022-12-17T03:36:23.616Z,13.10
2022-12-17T03:39:08.766Z,12.35
2022-12-17T03:41:53.918Z,12.02
2022-12-17T03:44:39.158Z,12.32
2022-12-17T03:47:24.590Z,11.43
2022-12-17T03:50:09.944Z,12.30
2022-12-17T03:52:55.191Z,12.57
2022-12-17T03:55:40.519Z,11.38
2022-12-17T03:58:25.574Z,10.93
2022-12-17T04:01:10.597Z,11.75
2022-12-17T04:03:55.981Z,11.93
2022-12-17T04:06:41.095Z,12.13
2022-12-17T04:09:26.152Z,11.70
2022-12-17T04:12:11.756Z,11.40
2022-12-17T04:14:57.245Z,11.57
2022-12-17T04:17:42.369Z,12.48
2022-12-17T04:20:28.143Z,13.15
2022-12-17T04:23:13.123Z,11.68
2022-12-17T04:25:58.287Z,11.82
2022-12-17T04:28:43.580Z,12.35
2022-12-17T04:31:28.846Z,11.75
2022-12-17T04:34:14.285Z,12.63
2022-12-17T04:36:59.377Z,12.68
2022-12-17T04:39:44.499Z,11.73
2022-12-17T04:42:29.548Z,12.60
2022-12-17T04:45:14.468Z,12.95
2022-12-17T04:47:59.600Z,13.05
2022-12-17T04:50:44.697Z,13.02
2022-12-17T04:53:29.921Z,12.45
2022-12-17T04:56:14.952Z,13.63
2022-12-17T04:59:00.191Z,13.88
2022-12-17T05:01:45.475Z,13.40
2022-12-17T05:04:30.769Z,12.68
2022-12-17T05:07:15.981Z,12.48
2022-12-17T05:10:01.109Z,11.90
2022-12-17T05:12:46.331Z,12.43
2022-12-17T05:15:31.538Z,12.48
2022-12-17T05:18:27.200Z,12.63
2022-12-17T05:21:12.335Z,14.48
2022-12-17T05:23:57.568Z,14.23
2022-12-17T05:26:45.837Z,14.70
2022-12-17T05:29:31.747Z,14.75
2022-12-17T05:32:17.525Z,14.85
2022-12-17T05:35:02.870Z,13.52
2022-12-17T05:37:48.177Z,14.50
2022-12-17T05:40:33.486Z,13.98
2022-12-17T05:43:20.930Z,13.15
2022-12-17T05:46:06.641Z,12.15
2022-12-17T05:48:53.616Z,13.65
2022-12-17T05:51:39.756Z,13.48
2022-12-17T05:54:26.181Z,12.27
2022-12-17T05:57:11.468Z,11.50
2022-12-17T05:59:56.621Z,11.90
2022-12-17T06:02:42.564Z,12.73
2022-12-17T06:05:28.294Z,11.90
2022-12-17T06:08:24.530Z,12.10
2022-12-17T06:11:09.764Z,12.07
2022-12-17T06:13:55.347Z,12.18
2022-12-17T06:16:40.922Z,12.07
2022-12-17T06:19:26.242Z,12.93
2022-12-17T06:22:11.363Z,12.48
2022-12-17T06:24:56.530Z,13.68
2022-12-17T06:27:42.038Z,13.52
2022-12-17T06:30:27.866Z,12.45
2022-12-17T06:33:25.728Z,11.05
2022-12-17T06:36:18.100Z,11.80
2022-12-17T06:39:06.734Z,11.95
2022-12-17T06:41:52.020Z,11.18
2022-12-17T06:44:37.947Z,10.15
2022-12-17T06:47:23.160Z,11.15
2022-12-17T06:50:08.370Z,11.40
2022-12-17T06:52:53.535Z,10.32
2022-12-17T06:55:38.459Z,11.20
2022-12-17T06:58:23.547Z,10.90
2022-12-17T07:01:09.821Z,10.73
2022-12-17T07:03:55.138Z,11.95
2022-12-17T07:06:40.777Z,11.23
2022-12-17T07:09:26.089Z,10.57
2022-12-17T07:12:11.384Z,9.50
2022-12-17T07:14:56.748Z,9.85
2022-12-17T07:17:42.069Z,10.43
2022-12-17T07:20:27.985Z,10.00
2022-12-17T07:23:16.494Z,10.80
2022-12-17T07:26:01.851Z,10.80
2022-12-17T07:28:46.989Z,11.07
2022-12-17T07:31:45.938Z,11.88
2022-12-17T07:34:31.104Z,12.32
2022-12-17T07:37:20.429Z,11.20
2022-12-17T07:40:07.573Z,12.60
2022-12-17T07:42:53.014Z,11.50
2022-12-17T07:45:38.315Z,13.85
2022-12-17T07:48:24.043Z,13.68
2022-12-17T07:51:09.654Z,13.52
2022-12-17T07:53:54.995Z,14.15
2022-12-17T07:56:42.867Z,14.05
2022-12-17T07:59:28.412Z,16.40
2022-12-17T08:02:13.902Z,13.55
2022-12-17T08:05:12.893Z,15.32
2022-12-17T08:07:58.356Z,14.35
2022-12-17T08:10:43.646Z,14.20
2022-12-17T08:13:29.016Z,13.55
2022-12-17T08:16:14.061Z,14.55
2022-12-17T08:18:59.438Z,14.52
2022-12-17T08:21:44.582Z,13.00
2022-12-17T08:24:29.771Z,13.68
2022-12-17T08:27:14.995Z,15.52
2022-12-17T08:30:00.804Z,15.10
2022-12-17T08:32:46.286Z,14.90
2022-12-17T08:35:31.479Z,15.63
2022-12-17T08:38:21.296Z,16.02
2022-12-17T08:41:06.939Z,14.63
2022-12-17T08:43:52.248Z,14.55
2022-12-17T08:46:38.129Z,15.40
2022-12-17T08:49:23.487Z,14.63
2022-12-17T08:52:08.804Z,14.45
2022-12-17T08:54:54.273Z,15.50
2022-12-17T08:57:39.495Z,16.33
2022-12-17T09:00:25.314Z,14.18
2022-12-17T09:03:15.849Z,14.15
2022-12-17T09:06:01.849Z,14.93
2022-12-17T09:08:50.318Z,15.93
2022-12-17T09:11:36.276Z,16.70
2022-12-17T09:14:22.008Z,15.25
2022-12-17T09:17:07.700Z,15.68
2022-12-17T09:19:53.432Z,16.58
2022-12-17T09:22:38.665Z,17.17
2022-12-17T09:25:24.447Z,18.48
2022-12-17T09:28:09.888Z,16.92
2022-12-17T09:30:55.138Z,16.45
2022-12-17T09:33:40.680Z,17.48
2022-12-17T09:36:26.574Z,18.15
2022-12-17T09:39:12.270Z,17.88
2022-12-17T09:42:06.601Z,18.50
2022-12-17T09:45:06.191Z,20.67
2022-12-17T09:50:55.852Z,18.58
2022-12-17T09:54:05.515Z,17.95
2022-12-17T09:59:47.425Z,19.13
2022-12-17T10:02:43.982Z,24.80
2022-12-17T10:05:39.599Z,23.48
2022-12-17T10:08:32.516Z,24.65
2022-12-17T10:11:34.391Z,28.88
2022-12-17T10:14:22.039Z,26.60
2022-12-17T10:17:11.855Z,27.90
2022-12-17T10:20:01.387Z,29.10
2022-12-17T10:22:47.016Z,32.97
2022-12-17T10:25:37.543Z,34.70
2022-12-17T10:28:40.242Z,33.03
2022-12-17T10:31:33.553Z,33.03
2022-12-17T10:34:24.751Z,32.30
2022-12-17T10:37:16.259Z,28.98
2022-12-17T10:40:01.770Z,31.65
2022-12-17T10:42:49.727Z,31.75
2022-12-17T10:45:49.820Z,32.22
2022-12-17T10:48:50.259Z,31.08
2022-12-17T10:51:43.676Z,33.45
2022-12-17T10:54:49.565Z,32.05
2022-12-17T10:57:56.108Z,32.63
2022-12-17T11:00:50.176Z,32.22
2022-12-17T11:04:05.576Z,31.63
2022-12-17T11:06:59.342Z,29.55
2022-12-17T11:10:08.584Z,30.73
2022-12-17T11:13:03.134Z,29.40
2022-12-17T11:15:54.161Z,34.53
2022-12-17T11:18:45.972Z,33.28
2022-12-17T11:21:40.030Z,34.45
2022-12-17T11:24:31.733Z,32.67
2022-12-17T11:27:18.130Z,30.95
2022-12-17T11:30:03.575Z,30.45
2022-12-17T11:32:48.611Z,32.30
2022-12-17T11:35:47.123Z,32.75
2022-12-17T11:38:48.833Z,31.50
2022-12-17T11:41:44.664Z,31.73
2022-12-17T11:44:55.781Z,32.40
2022-12-17T11:48:02.902Z,33.40
2022-12-17T11:51:03.382Z,32.50
2022-12-17T11:54:21.533Z,31.45
2022-12-17T11:57:31.487Z,31.10
2022-12-17T12:00:25.046Z,36.75
2022-12-17T12:03:41.611Z,35.45
2022-12-17T12:06:51.911Z,33.40
2022-12-17T12:10:02.283Z,32.92
2022-12-17T12:13:29.471Z,32.00
2022-12-17T12:16:17.569Z,30.48
2022-12-17T12:19:23.238Z,27.60
2022-12-17T12:22:19.495Z,29.05
2022-12-17T12:25:35.751Z,27.50
2022-12-17T12:28:36.744Z,27.83
2022-12-17T12:31:40.872Z,27.73
2022-12-17T12:34:53.751Z,27.52
2022-12-17T12:37:39.321Z,27.92
2022-12-17T12:40:33.921Z,28.48
2022-12-17T12:43:31.475Z,28.55
2022-12-17T12:46:23.592Z,29.95
2022-12-17T12:49:27.432Z,25.95
2022-12-17T12:52:15.260Z,26.77
2022-12-17T12:55:03.561Z,25.80
2022-12-17T12:57:53.835Z,27.38
2022-12-17T13:00:53.023Z,31.58
2022-12-17T13:03:54.599Z,28.38
2022-12-17T13:06:43.216Z,26.95
2022-12-17T13:09:15.932Z,26.75
2022-12-17T13:11:53.725Z,25.98
2022-12-17T13:14:26.291Z,25.00
2022-12-17T13:17:16.430Z,26.67
2022-12-17T13:20:00.694Z,24.67
2022-12-17T13:22:28.880Z,24.38
2022-12-17T13:25:16.252Z,25.45
2022-12-17T13:27:43.331Z,26.75
2022-12-17T13:30:18.756Z,26.80
2022-12-17T13:33:05.586Z,26.55
2022-12-17T13:35:53.695Z,24.83
2022-12-17T13:38:39.525Z,24.48
2022-12-17T13:41:14.582Z,26.48
2022-12-17T13:43:44.829Z,25.48
2022-12-17T13:46:23.415Z,25.48
2022-12-17T13:49:01.934Z,26.70
2022-12-17T13:51:31.161Z,26.25
2022-12-17T13:54:03.743Z,25.90
2022-12-17T13:56:36.878Z,24.02
2022-12-17T13:59:09.157Z,24.35
2022-12-17T14:01:46.518Z,24.05
2022-12-17T14:04:30.160Z,23.45
2022-12-17T14:07:00.887Z,24.27
2022-12-17T14:09:38.810Z,24.40
2022-12-17T14:12:25.418Z,24.52
2022-12-17T14:15:05.034Z,27.42
2022-12-17T14:17:44.108Z,24.23
2022-12-17T14:20:17.121Z,19.52
2022-12-17T14:22:51.406Z,24.20
2022-12-17T14:25:30.425Z,25.10
2022-12-17T14:27:58.781Z,24.15
2022-12-17T14:31:24.220Z,26.70
2022-12-17T14:33:34.771Z,25.30
2022-12-17T14:36:07.272Z,25.10
2022-12-17T14:38:48.503Z,24.23
2022-12-17T14:41:33.969Z,23.85
2022-12-17T14:44:02.593Z,24.83
2022-12-17T14:46:30.570Z,25.58
2022-12-17T14:49:02.269Z,25.02
2022-12-17T14:51:41.030Z,28.27
2022-12-17T14:54:13.807Z,25.17
2022-12-17T14:56:47.005Z,24.45
2022-12-17T14:59:36.633Z,25.02
2022-12-17T15:04:33.468Z,29.50
2022-12-17T15:07:03.801Z,23.70
2022-12-17T15:09:30.577Z,26.60
2022-12-17T15:11:57.505Z,24.75
2022-12-17T15:14:24.421Z,27.40
2022-12-17T15:16:51.180Z,25.15
2022-12-17T15:19:18.107Z,25.88
2022-12-17T15:21:45.008Z,24.83
2022-12-17T15:24:13.491Z,25.73
2022-12-17T15:26:40.735Z,28.50
2022-12-17T15:29:07.699Z,27.88
2022-12-17T15:31:35.801Z,27.45
2022-12-17T15:34:02.834Z,28.15
2022-12-17T15:36:31.921Z,28.40
2022-12-17T15:38:59.121Z,29.80
2022-12-17T15:41:44.617Z,29.15
2022-12-17T15:44:11.945Z,28.00
2022-12-17T15:46:39.772Z,28.85
2022-12-17T15:49:06.617Z,30.25
2022-12-17T15:51:33.508Z,29.02
2022-12-17T15:54:00.275Z,28.90
2022-12-17T15:56:28.398Z,32.53
2022-12-17T15:58:59.120Z,30.58
2022-12-17T16:01:25.927Z,31.52
2022-12-17T16:03:54.098Z,29.65
2022-12-17T16:06:21.288Z,27.33
2022-12-17T16:08:47.886Z,27.33
2022-12-17T16:11:16.177Z,24.67
2022-12-17T16:13:43.321Z,23.42
2022-12-17T16:16:10.295Z,23.30
2022-12-17T16:18:38.724Z,22.73
2022-12-17T16:21:08.347Z,18.33
2022-12-17T16:23:36.175Z,22.23
2022-12-17T16:26:05.505Z,24.25
2022-12-17T16:28:32.626Z,22.92
2022-12-17T16:31:08.701Z,24.02
2022-12-17T16:33:37.651Z,24.02
2022-12-17T16:36:05.722Z,23.70
2022-12-17T16:38:36.136Z,22.83
2022-12-17T16:41:03.646Z,22.45
2022-12-17T16:43:34.142Z,23.15
2022-12-17T16:46:01.784Z,22.65
2022-12-17T16:48:28.574Z,22.88
2022-12-17T16:50:55.529Z,24.05
2022-12-17T16:53:22.246Z,21.73
2022-12-17T16:55:49.896Z,24.65
2022-12-17T16:58:17.938Z,23.98
2022-12-17T17:00:46.443Z,23.42
2022-12-17T17:03:13.749Z,23.23
2022-12-17T17:05:41.272Z,23.42
2022-12-17T17:08:08.106Z,23.02
2022-12-17T17:10:37.915Z,21.27
2022-12-17T17:13:04.850Z,21.88
2022-12-17T17:15:31.908Z,22.25
2022-12-17T17:18:01.851Z,22.95
2022-12-17T17:20:32.537Z,22.67
2022-12-17T17:22:59.620Z,22.60
2022-12-17T17:25:43.821Z,22.67
2022-12-17T17:28:13.611Z,22.23
2022-12-17T17:30:40.274Z,21.77
2022-12-17T17:33:08.751Z,24.33
2022-12-17T17:35:35.560Z,23.70
2022-12-17T17:38:02.233Z,22.58
2022-12-17T17:40:29.008Z,22.65
2022-12-17T17:42:55.818Z,23.35
2022-12-17T17:45:22.565Z,22.40
2022-12-17T17:47:49.425Z,20.90
2022-12-17T17:50:16.397Z,22.15
2022-12-17T17:52:43.120Z,22.27
2022-12-17T17:55:10.119Z,23.50
2022-12-17T17:57:36.808Z,22.15
2022-12-17T18:00:05.501Z,21.48
2022-12-17T18:02:32.348Z,18.73
2022-12-17T18:04:59.369Z,21.83
2022-12-17T18:07:27.332Z,22.20
2022-12-17T18:09:55.224Z,22.73
2022-12-17T18:12:40.443Z,23.95
2022-12-17T18:15:16.984Z,21.85
2022-12-17T18:17:46.389Z,20.63
2022-12-17T18:20:13.781Z,22.33
2022-12-17T18:22:40.616Z,23.17
2022-12-17T18:25:07.729Z,21.30
2022-12-17T18:27:34.407Z,21.65
2022-12-17T18:30:01.036Z,21.30
2022-12-17T18:32:27.830Z,21.20
2022-12-17T18:34:54.758Z,21.90
2022-12-17T18:37:21.552Z,21.77
2022-12-17T18:39:49.029Z,21.67
2022-12-17T18:42:34.808Z,21.20
2022-12-17T18:45:01.883Z,21.55
2022-12-17T18:47:28.887Z,21.98
2022-12-17T18:49:55.549Z,22.40
2022-12-17T18:52:24.542Z,21.27
2022-12-17T18:54:51.212Z,21.55
2022-12-17T18:57:17.904Z,22.00
2022-12-17T18:59:44.527Z,22.45
2022-12-17T19:02:13.909Z,21.40
2022-12-17T19:04:41.844Z,20.92
2022-12-17T19:07:08.619Z,20.70
2022-12-17T19:09:36.111Z,21.85
2022-12-17T19:12:08.336Z,21.70
2022-12-17T19:14:36.563Z,21.45
2022-12-17T19:17:05.140Z,22.15
2022-12-17T19:19:32.755Z,22.50
2022-12-17T19:22:00.222Z,21.75
2022-12-17T19:24:27.441Z,22.13
2022-12-17T19:26:54.839Z,21.83
2022-12-17T19:29:21.967Z,22.95
2022-12-17T19:31:49.138Z,21.73
2022-12-17T19:34:18.900Z,21.33
2022-12-17T19:36:46.505Z,23.08
2022-12-17T19:39:19.225Z,21.85
2022-12-17T19:41:46.590Z,23.38
2022-12-17T19:44:20.030Z,22.48
2022-12-17T19:46:49.098Z,22.08
2022-12-17T19:49:17.504Z,23.08
2022-12-17T19:51:45.147Z,23.45
2022-12-17T19:54:14.780Z,22.30
2022-12-17T19:56:42.869Z,24.05
2022-12-17T19:59:11.704Z,23.58
2022-12-17T20:01:45.188Z,19.05
2022-12-17T20:04:13.518Z,23.00
2022-12-17T20:06:41.655Z,22.95
2022-12-17T20:09:08.477Z,23.30
2022-12-17T20:11:36.348Z,24.42
2022-12-17T20:14:09.375Z,23.92
2022-12-17T20:16:39.121Z,25.80
2022-12-17T20:19:12.930Z,26.08
2022-12-17T20:21:40.244Z,23.90
2022-12-17T20:24:07.679Z,26.60
2022-12-17T20:26:37.100Z,25.13
2022-12-17T20:29:05.458Z,23.92
2022-12-17T20:31:32.920Z,25.55
2022-12-17T20:34:06.944Z,24.55
2022-12-17T20:36:34.128Z,23.77
2022-12-17T20:39:02.664Z,23.67
2022-12-17T20:41:30.753Z,23.58
2022-12-17T20:43:58.221Z,23.10
2022-12-17T20:46:25.569Z,24.40
2022-12-17T20:48:52.701Z,24.23
2022-12-17T20:51:28.575Z,23.50
2022-12-17T20:53:57.052Z,21.90
2022-12-17T20:56:29.997Z,23.88
2022-12-17T20:59:00.151Z,24.13
2022-12-17T21:01:30.056Z,23.88
2022-12-17T21:03:58.298Z,23.88
2022-12-17T21:06:28.095Z,22.63
2022-12-17T21:08:56.259Z,22.70
2022-12-17T21:11:25.704Z,24.02
2022-12-17T21:13:53.278Z,23.00
2022-12-17T21:16:29.625Z,24.17
2022-12-17T21:18:58.378Z,24.40
2022-12-17T21:21:30.085Z,25.08
2022-12-17T21:23:57.848Z,22.52
2022-12-17T21:26:32.905Z,23.45
2022-12-17T21:29:01.591Z,21.45
2022-12-17T21:31:30.055Z,22.93
2022-12-17T21:33:59.401Z,23.75
2022-12-17T21:36:28.486Z,24.42
2022-12-17T21:38:55.196Z,23.50
2022-12-17T21:41:25.727Z,22.85
2022-12-17T21:44:05.124Z,22.63
2022-12-17T21:46:33.144Z,22.00
2022-12-17T21:49:01.309Z,23.35
2022-12-17T21:51:29.508Z,22.75
2022-12-17T21:53:58.677Z,23.20
2022-12-17T21:56:26.235Z,24.33
2022-12-17T21:59:00.845Z,24.15
2022-12-17T22:01:31.685Z,23.55
2022-12-17T22:04:00.215Z,22.55
2022-12-17T22:06:32.001Z,22.45
2022-12-17T22:09:15.277Z,23.45
2022-12-17T22:12:11.638Z,23.33
2022-12-17T22:14:38.513Z,23.63
2022-12-17T22:17:06.571Z,21.92
2022-12-17T22:19:33.900Z,22.55
2022-12-17T22:22:00.755Z,24.20
2022-12-17T22:24:27.891Z,23.58
2022-12-17T22:27:00.944Z,24.05
2022-12-17T22:29:46.674Z,23.83
2022-12-17T22:32:32.585Z,24.73
2022-12-17T22:35:30.331Z,22.40
2022-12-17T22:40:40.873Z,23.27
2022-12-17T22:44:31.563Z,24.00
2022-12-17T22:44:42.465Z,23.70
2022-12-17T22:46:17.155Z,22.65
2022-12-17T22:48:44.264Z,23.10
2022-12-17T22:51:16.921Z,23.63
2022-12-17T22:53:47.242Z,24.00
2022-12-17T22:56:25.607Z,23.70
2022-12-17T22:59:00.891Z,24.77
2022-12-17T23:01:28.033Z,23.98
2022-12-17T23:03:59.960Z,24.33
2022-12-17T23:06:27.551Z,25.33
2022-12-17T23:08:54.674Z,23.40
2022-12-17T23:11:27.399Z,24.60
2022-12-17T23:13:55.556Z,23.65
2022-12-17T23:16:22.746Z,23.65
2022-12-17T23:18:51.596Z,22.58
2022-12-17T23:21:21.984Z,18.92
2022-12-17T23:23:48.835Z,23.00
2022-12-17T23:26:22.162Z,21.33
2022-12-17T23:28:52.531Z,23.42
2022-12-17T23:31:21.359Z,20.92
2022-12-17T23:33:48.476Z,21.60
2022-12-17T23:36:21.356Z,22.95
2022-12-17T23:38:49.403Z,21.48
2022-12-17T23:41:21.970Z,20.38
2022-12-17T23:43:50.026Z,23.40
2022-12-17T23:46:18.313Z,20.88
2022-12-17T23:48:46.629Z,22.90
2022-12-17T23:51:14.853Z,21.42
2022-12-17T23:53:43.204Z,22.08
2022-12-17T23:56:20.589Z,22.97
2022-12-17T23:58:48.269Z,21.70
